Time,TemperatureF,DewpointF,PressureIn,WindDirection,WindDirectionDegrees,WindSpeedMPH,WindSpeedGustMPH,Humidity,HourlyPrecipIn,Conditions,Clouds,dailyrainin,SoftwareType,DateUTC
2013-01-23 00:03:00,8.3,1.5,30.28,NW,322,2.0,4.0,73,0.00,,,0.00,LWC V2.10 B1813,2013-01-23 09:03:00,
2013-01-23 00:08:00,7.9,1.1,30.28,NW,315,2.0,3.0,73,0.00,,,0.00,LWC V2.10 B1813,2013-01-23 09:08:00,
2013-01-23 00:13:00,7.5,1.0,30.28,NW,315,1.0,6.0,74,0.00,,,0.00,LWC V2.10 B1813,2013-01-23 09:13:00,
2013-01-23 00:18:00,7.1,0.6,30.28,NNE,26,5.0,12.0,74,0.00,,,0.00,LWC V2.10 B1813,2013-01-23 09:18:00,
2013-01-23 00:23:00,6.8,0.6,30.27,NW,309,2.0,8.0,75,0.00,,,0.00,LWC V2.10 B1813,2013-01-23 09:23:00,
2013-01-23 00:28:00,6.5,0.3,30.27,NW,323,6.0,6.0,75,0.00,,,0.00,LWC V2.10 B1813,2013-01-23 09:28:00,
2013-01-23 00:33:00,6.5,0.6,30.27,North,0,1.0,2.0,76,0.00,,,0.00,LWC V2.10 B1813,2013-01-23 09:33:00,
2013-01-23 00:38:00,6.7,0.8,30.27,NW,309,4.0,8.0,76,0.00,,,0.00,LWC V2.10 B1813,2013-01-23 09:38:00,
2013-01-23 00:43:00,7.0,1.1,30.27,North,9,9.0,14.0,76,0.00,,,0.00,LWC V2.10 B1813,2013-01-23 09:43:00,
2013-01-23 00:48:00,7.6,1.4,30.27,NNE,31,6.0,13.0,75,0.00,,,0.00,LWC V2.10 B1813,2013-01-23 09:48:00,
2013-01-23 00:53:00,7.7,1.5,30.27,NNW,330,2.0,7.0,75,0.00,,,0.00,LWC V2.10 B1813,2013-01-23 09:53:00,
2013-01-23 00:58:00,7.7,1.2,30.27,North,355,4.0,8.0,74,0.00,,,0.00,LWC V2.10 B1813,2013-01-23 09:58:00,
2013-01-23 01:03:00,7.6,1.1,30.27,ENE,63,0.0,2.0,74,0.00,,,0.00,LWC V2.10 B1813,2013-01-23 10:03:00,
2013-01-23 01:08:00,7.4,1.2,30.27,NNW,348,3.0,13.0,75,0.00,,,0.00,LWC V2.10 B1813,2013-01-23 10:08:00,
2013-01-23 01:13:00,7.5,1.3,30.27,North,5,3.0,7.0,75,0.00,,,0.00,LWC V2.10 B1813,2013-01-23 10:13:00,
2013-01-23 01:18:00,7.3,1.1,30.27,NW,316,5.0,7.0,75,0.00,,,0.00,LWC V2.10 B1813,2013-01-23 10:18:00,
2013-01-23 01:23:00,7.1,0.9,30.27,NW,322,0.0,2.0,75,0.00,,,0.00,LWC V2.10 B1813,2013-01-23 10:23:00,
2013-01-23 01:28:00,6.8,0.6,30.27,NW,322,0.0,3.0,75,0.00,,,0.00,LWC V2.10 B1813,2013-01-23 10:28:00,
2013-01-23 01:33:00,6.6,0.7,30.27,NNW,327,4.0,10.0,76,0.00,,,0.00,LWC V2.10 B1813,2013-01-23 10:33:00,
2013-01-23 01:38:00,6.5,0.3,30.27,North,355,0.0,7.0,75,0.00,,,0.00,LWC V2.10 B1813,2013-01-23 10:38:00,
2013-01-23 01:43:00,6.3,0.1,30.26,NNW,346,3.0,13.0,75,0.00,,,0.00,LWC V2.10 B1813,2013-01-23 10:43:00,
2013-01-23 01:48:00,6.8,0.6,30.26,NNE,13,5.0,16.0,75,0.00,,,0.00,LWC V2.10 B1813,2013-01-23 10:48:00,
2013-01-23 01:53:00,7.3,0.8,30.26,NNW,327,2.0,9.0,74,0.00,,,0.00,LWC V2.10 B1813,2013-01-23 10:53:00,
2013-01-23 01:58:00,7.3,0.5,30.26,NW,312,3.0,4.0,73,0.00,,,0.00,LWC V2.10 B1813,2013-01-23 10:58:00,
2013-01-23 02:03:00,6.9,0.4,30.26,North,355,4.0,8.0,74,0.00,,,0.00,LWC V2.10 B1813,2013-01-23 11:03:00,
2013-01-23 02:08:00,6.7,0.2,30.26,West,270,2.0,12.0,74,0.00,,,0.00,LWC V2.10 B1813,2013-01-23 11:08:00,
2013-01-23 02:13:00,6.5,0.0,30.26,West,269,1.0,11.0,74,0.00,,,0.00,LWC V2.10 B1813,2013-01-23 11:13:00,
2013-01-23 02:18:00,6.3,0.1,30.26,NNW,346,0.0,6.0,75,0.00,,,0.00,LWC V2.10 B1813,2013-01-23 11:18:00,
2013-01-23 02:23:00,5.9,-0.3,30.25,NNE,13,4.0,4.0,75,0.00,,,0.00,LWC V2.10 B1813,2013-01-23 11:23:00,
2013-01-23 02:28:00,5.7,-0.2,30.25,North,355,8.0,11.0,76,0.00,,,0.00,LWC V2.10 B1813,2013-01-23 11:28:00,
2013-01-23 02:33:00,6.0,0.1,30.25,NNE,14,0.0,7.0,76,0.00,,,0.00,LWC V2.10 B1813,2013-01-23 11:33:00,
2013-01-23 02:38:00,6.2,0.0,30.25,North,351,2.0,10.0,75,0.00,,,0.00,LWC V2.10 B1813,2013-01-23 11:38:00,
2013-01-23 02:43:00,6.6,0.4,30.25,North,5,5.0,10.0,75,0.00,,,0.00,LWC V2.10 B1813,2013-01-23 11:43:00,
2013-01-23 02:48:00,7.0,0.8,30.25,NW,325,2.0,6.0,75,0.00,,,0.00,LWC V2.10 B1813,2013-01-23 11:48:00,
2013-01-23 02:53:00,7.2,0.7,30.25,NNW,336,2.0,9.0,74,0.00,,,0.00,LWC V2.10 B1813,2013-01-23 11:53:00,
2013-01-23 02:58:00,7.3,0.8,30.24,North,0,5.0,6.0,74,0.00,,,0.00,LWC V2.10 B1813,2013-01-23 11:58:00,
2013-01-23 03:03:00,7.1,0.6,30.24,NE,44,1.0,3.0,74,0.00,,,0.00,LWC V2.10 B1813,2013-01-23 12:03:00,
2013-01-23 03:08:00,6.7,0.2,30.24,NW,315,1.0,4.0,74,0.00,,,0.00,LWC V2.10 B1813,2013-01-23 12:08:00,
2013-01-23 03:13:00,6.3,-0.2,30.24,NW,315,1.0,2.0,74,0.00,,,0.00,LWC V2.10 B1813,2013-01-23 12:13:00,
2013-01-23 03:18:00,5.9,-0.6,30.24,NNW,331,0.0,1.0,74,0.00,,,0.00,LWC V2.10 B1813,2013-01-23 12:18:00,
2013-01-23 03:23:00,5.7,-0.5,30.24,NNW,331,2.0,3.0,75,0.00,,,0.00,LWC V2.10 B1813,2013-01-23 12:23:00,
2013-01-23 03:28:00,5.5,-0.7,30.24,WNW,296,3.0,4.0,75,0.00,,,0.00,LWC V2.10 B1813,2013-01-23 12:28:00,
2013-01-23 03:33:00,5.2,-1.2,30.23,WNW,290,2.0,4.0,74,0.00,,,0.00,LWC V2.10 B1813,2013-01-23 12:33:00,
2013-01-23 03:38:00,4.9,-1.3,30.23,West,280,5.0,5.0,75,0.00,,,0.00,LWC V2.10 B1813,2013-01-23 12:38:00,
2013-01-23 03:43:00,4.7,-1.2,30.24,NNW,333,1.0,6.0,76,0.00,,,0.00,LWC V2.10 B1813,2013-01-23 12:43:00,
2013-01-23 03:48:00,4.5,-1.4,30.23,NW,322,1.0,4.0,76,0.00,,,0.00,LWC V2.10 B1813,2013-01-23 12:48:00,
2013-01-23 03:53:00,4.2,-1.7,30.23,NW,305,4.0,8.0,76,0.00,,,0.00,LWC V2.10 B1813,2013-01-23 12:53:00,
2013-01-23 03:58:00,4.1,-1.8,30.23,NNW,338,5.0,7.0,76,0.00,,,0.00,LWC V2.10 B1813,2013-01-23 12:58:00,
2013-01-23 04:03:00,3.8,-2.0,30.23,NW,312,0.0,6.0,76,0.00,,,0.00,LWC V2.10 B1813,2013-01-23 13:03:00,
2013-01-23 04:08:00,3.5,-2.3,30.23,NNW,330,3.0,3.0,76,0.00,,,0.00,LWC V2.10 B1813,2013-01-23 13:08:00,
2013-01-23 04:13:00,3.3,-2.3,30.23,NW,305,2.0,4.0,77,0.00,,,0.00,LWC V2.10 B1813,2013-01-23 13:13:00,
2013-01-23 04:18:00,3.2,-2.1,30.23,WNW,292,4.0,6.0,78,0.00,,,0.00,LWC V2.10 B1813,2013-01-23 13:18:00,
2013-01-23 04:23:00,3.2,-2.1,30.22,NW,304,4.0,4.0,78,0.00,,,0.00,LWC V2.10 B1813,2013-01-23 13:23:00,
2013-01-23 04:28:00,3.2,-2.1,30.22,WNW,298,2.0,4.0,78,0.00,,,0.00,LWC V2.10 B1813,2013-01-23 13:28:00,
2013-01-23 04:33:00,3.1,-2.2,30.22,NW,313,2.0,4.0,78,0.00,,,0.00,LWC V2.10 B1813,2013-01-23 13:33:00,
2013-01-23 04:38:00,3.1,-2.2,30.22,WNW,294,0.0,5.0,78,0.00,,,0.00,LWC V2.10 B1813,2013-01-23 13:38:00,
2013-01-23 04:43:00,3.1,-2.2,30.22,WNW,288,1.0,2.0,78,0.00,,,0.00,LWC V2.10 B1813,2013-01-23 13:43:00,
2013-01-23 04:48:00,3.2,-1.8,30.22,West,268,0.0,6.0,79,0.00,,,0.00,LWC V2.10 B1813,2013-01-23 13:48:00,
2013-01-23 04:53:00,3.5,-1.5,30.22,West,269,0.0,3.0,79,0.00,,,0.00,LWC V2.10 B1813,2013-01-23 13:53:00,
2013-01-23 04:58:00,3.6,-1.7,30.22,WNW,291,2.0,2.0,78,0.00,,,0.00,LWC V2.10 B1813,2013-01-23 13:58:00,
2013-01-23 05:03:00,3.5,-1.8,30.22,NW,325,4.0,5.0,78,0.00,,,0.00,LWC V2.10 B1813,2013-01-23 14:03:00,
2013-01-23 05:08:00,3.3,-2.3,30.22,WNW,285,4.0,7.0,77,0.00,,,0.00,LWC V2.10 B1813,2013-01-23 14:08:00,
2013-01-23 05:13:00,3.5,-1.8,30.22,NNW,331,3.0,5.0,78,0.00,,,0.00,LWC V2.10 B1813,2013-01-23 14:13:00,
2013-01-23 05:18:00,3.8,-1.5,30.21,NW,309,0.0,4.0,78,0.00,,,0.00,LWC V2.10 B1813,2013-01-23 14:18:00,
2013-01-23 05:23:00,3.9,-1.4,30.21,NW,305,0.0,3.0,78,0.00,,,0.00,LWC V2.10 B1813,2013-01-23 14:23:00,
2013-01-23 05:28:00,3.9,-1.4,30.21,NW,304,0.0,2.0,78,0.00,,,0.00,LWC V2.10 B1813,2013-01-23 14:28:00,
2013-01-23 05:33:00,4.0,-1.0,30.22,NW,319,3.0,4.0,79,0.00,,,0.00,LWC V2.10 B1813,2013-01-23 14:33:00,
2013-01-23 05:38:00,4.0,-1.0,30.21,NW,306,2.0,5.0,79,0.00,,,0.00,LWC V2.10 B1813,2013-01-23 14:38:00,
2013-01-23 05:43:00,4.2,-0.8,30.21,NW,304,1.0,8.0,79,0.00,,,0.00,LWC V2.10 B1813,2013-01-23 14:43:00,
2013-01-23 05:48:00,4.3,-0.7,30.21,NNW,333,3.0,7.0,79,0.00,,,0.00,LWC V2.10 B1813,2013-01-23 14:48:00,
2013-01-23 05:53:00,4.5,-0.5,30.21,NW,322,3.0,3.0,79,0.00,,,0.00,LWC V2.10 B1813,2013-01-23 14:53:00,
2013-01-23 05:58:00,4.7,-0.4,30.21,NNW,330,5.0,5.0,79,0.00,,,0.00,LWC V2.10 B1813,2013-01-23 14:58:00,
2013-01-23 06:03:00,5.4,0.3,30.21,North,5,5.0,10.0,79,0.00,,,0.00,LWC V2.10 B1813,2013-01-23 15:03:00,
2013-01-23 06:08:00,6.3,0.9,30.20,North,10,7.0,13.0,78,0.00,,,0.00,LWC V2.10 B1813,2013-01-23 15:08:00,
2013-01-23 06:13:00,7.3,1.4,30.20,NNW,327,2.0,7.0,76,0.00,,,0.00,LWC V2.10 B1813,2013-01-23 15:13:00,
2013-01-23 06:18:00,7.7,1.7,30.20,NNE,24,6.0,11.0,76,0.00,,,0.00,LWC V2.10 B1813,2013-01-23 15:18:00,
2013-01-23 06:23:00,8.1,1.6,30.20,NNW,342,8.0,11.0,74,0.00,,,0.00,LWC V2.10 B1813,2013-01-23 15:23:00,
2013-01-23 06:28:00,8.4,1.6,30.20,NNE,21,12.0,13.0,73,0.00,,,0.00,LWC V2.10 B1813,2013-01-23 15:28:00,
2013-01-23 06:33:00,8.6,1.5,30.20,NNW,340,5.0,12.0,72,0.00,,,0.00,LWC V2.10 B1813,2013-01-23 15:33:00,
2013-01-23 06:38:00,8.5,1.7,30.20,NW,323,2.0,6.0,73,0.00,,,0.00,LWC V2.10 B1813,2013-01-23 15:38:00,
2013-01-23 06:43:00,8.5,1.4,30.20,NNE,13,5.0,13.0,72,0.00,,,0.00,LWC V2.10 B1813,2013-01-23 15:43:00,
2013-01-23 06:48:00,8.5,1.7,30.20,North,355,2.0,9.0,73,0.00,,,0.00,LWC V2.10 B1813,2013-01-23 15:48:00,
2013-01-23 06:53:00,8.4,1.3,30.19,NE,38,1.0,9.0,72,0.00,,,0.00,LWC V2.10 B1813,2013-01-23 15:53:00,
2013-01-23 06:58:00,8.2,1.1,30.19,NE,45,1.0,5.0,72,0.00,,,0.00,LWC V2.10 B1813,2013-01-23 15:58:00,
2013-01-23 07:03:00,8.3,1.2,30.19,NNW,348,3.0,6.0,72,0.00,,,0.00,LWC V2.10 B1813,2013-01-23 16:03:00,
2013-01-23 07:08:00,8.1,1.0,30.19,North,5,5.0,5.0,72,0.00,,,0.00,LWC V2.10 B1813,2013-01-23 16:08:00,
2013-01-23 07:13:00,7.8,0.4,30.19,NNW,342,1.0,4.0,71,0.00,,,0.00,LWC V2.10 B1813,2013-01-23 16:13:00,
2013-01-23 07:18:00,7.5,0.1,30.19,NE,37,4.0,8.0,71,0.00,,,0.00,LWC V2.10 B1813,2013-01-23 16:18:00,
2013-01-23 07:23:00,7.1,0.0,30.19,West,279,1.0,3.0,72,0.00,,,0.00,LWC V2.10 B1813,2013-01-23 16:23:00,
2013-01-23 07:28:00,6.7,-0.1,30.19,NW,321,2.0,7.0,73,0.00,,,0.00,LWC V2.10 B1813,2013-01-23 16:28:00,
2013-01-23 07:33:00,6.5,-0.3,30.19,NNW,327,1.0,9.0,73,0.00,,,0.00,LWC V2.10 B1813,2013-01-23 16:33:00,
2013-01-23 07:38:00,6.2,-0.6,30.19,WNW,303,1.0,6.0,73,0.00,,,0.00,LWC V2.10 B1813,2013-01-23 16:38:00,
2013-01-23 07:43:00,5.9,-0.9,30.19,WNW,292,3.0,3.0,73,0.00,,,0.00,LWC V2.10 B1813,2013-01-23 16:43:00,
2013-01-23 07:48:00,5.5,-1.2,30.19,North,5,4.0,7.0,73,0.00,,,0.00,LWC V2.10 B1813,2013-01-23 16:48:00,
2013-01-23 07:53:00,5.1,-1.6,30.19,NW,314,3.0,7.0,73,0.00,,,0.00,LWC V2.10 B1813,2013-01-23 16:53:00,
2013-01-23 07:58:00,4.7,-1.7,30.19,NW,315,0.0,10.0,74,0.00,,,0.00,LWC V2.10 B1813,2013-01-23 16:58:00,
2013-01-23 08:03:00,4.6,-1.8,30.19,NNW,328,1.0,5.0,74,0.00,,,0.00,LWC V2.10 B1813,2013-01-23 17:03:00,
2013-01-23 08:08:00,4.4,-2.0,30.19,NW,311,3.0,5.0,74,0.00,,,0.00,LWC V2.10 B1813,2013-01-23 17:08:00,
2013-01-23 08:13:00,4.3,-2.1,30.19,WNW,298,1.0,5.0,74,0.00,,,0.00,LWC V2.10 B1813,2013-01-23 17:13:00,
2013-01-23 08:18:00,4.0,-2.4,30.19,NW,318,3.0,4.0,74,0.00,,,0.00,LWC V2.10 B1813,2013-01-23 17:18:00,
2013-01-23 08:23:00,3.7,-2.4,30.19,NW,306,3.0,5.0,75,0.00,,,0.00,LWC V2.10 B1813,2013-01-23 17:23:00,
2013-01-23 08:28:00,3.4,-2.7,30.19,WNW,299,2.0,10.0,75,0.00,,,0.00,LWC V2.10 B1813,2013-01-23 17:28:00,
2013-01-23 08:33:00,3.2,-2.9,30.19,NNW,339,1.0,4.0,75,0.00,,,0.00,LWC V2.10 B1813,2013-01-23 17:33:00,
2013-01-23 08:38:00,3.1,-3.0,30.19,WNW,297,2.0,6.0,75,0.00,,,0.00,LWC V2.10 B1813,2013-01-23 17:38:00,
2013-01-23 08:43:00,2.9,-3.2,30.19,NW,307,2.0,5.0,75,0.00,,,0.00,LWC V2.10 B1813,2013-01-23 17:43:00,
2013-01-23 08:48:00,2.8,-3.3,30.19,WNW,303,3.0,8.0,75,0.00,,,0.00,LWC V2.10 B1813,2013-01-23 17:48:00,
2013-01-23 08:53:00,2.7,-3.1,30.19,NNW,333,9.0,9.0,76,0.00,,,0.00,LWC V2.10 B1813,2013-01-23 17:53:00,
2013-01-23 08:58:00,2.7,-3.1,30.19,NW,322,2.0,4.0,76,0.00,,,0.00,LWC V2.10 B1813,2013-01-23 17:58:00,
2013-01-23 09:03:00,2.7,-3.1,30.19,NW,317,5.0,5.0,76,0.00,,,0.00,LWC V2.10 B1813,2013-01-23 18:03:00,
2013-01-23 09:08:00,2.8,-3.0,30.19,NW,322,1.0,7.0,76,0.00,,,0.00,LWC V2.10 B1813,2013-01-23 18:08:00,
2013-01-23 09:13:00,2.9,-2.6,30.19,North,11,5.0,8.0,77,0.00,,,0.00,LWC V2.10 B1813,2013-01-23 18:13:00,
2013-01-23 09:18:00,3.4,-2.2,30.19,NNW,331,3.0,13.0,77,0.00,,,0.00,LWC V2.10 B1813,2013-01-23 18:18:00,
2013-01-23 09:23:00,4.0,-1.9,30.19,NW,326,4.0,10.0,76,0.00,,,0.00,LWC V2.10 B1813,2013-01-23 18:23:00,
2013-01-23 09:28:00,4.5,-1.6,30.19,NNE,14,9.0,14.0,75,0.00,,,0.00,LWC V2.10 B1813,2013-01-23 18:28:00,
2013-01-23 09:33:00,5.0,-1.7,30.20,NW,324,8.0,15.0,73,0.00,,,0.00,LWC V2.10 B1813,2013-01-23 18:33:00,
2013-01-23 09:38:00,5.2,-2.1,30.19,North,0,6.0,15.0,71,0.00,,,0.00,LWC V2.10 B1813,2013-01-23 18:38:00,
2013-01-23 09:43:00,5.3,-2.0,30.19,North,0,5.0,8.0,71,0.00,,,0.00,LWC V2.10 B1813,2013-01-23 18:43:00,
2013-01-23 09:48:00,5.3,-1.7,30.19,North,0,3.0,10.0,72,0.00,,,0.00,LWC V2.10 B1813,2013-01-23 18:48:00,
2013-01-23 09:53:00,5.2,-1.8,30.19,NE,35,8.0,9.0,72,0.00,,,0.00,LWC V2.10 B1813,2013-01-23 18:53:00,
2013-01-23 09:58:00,5.2,-1.8,30.19,NE,40,6.0,11.0,72,0.00,,,0.00,LWC V2.10 B1813,2013-01-23 18:58:00,
2013-01-23 10:03:00,5.4,-1.9,30.19,NNW,333,4.0,8.0,71,0.00,,,0.00,LWC V2.10 B1813,2013-01-23 19:03:00,
2013-01-23 10:08:00,5.5,-1.8,30.19,NNW,348,10.0,10.0,71,0.00,,,0.00,LWC V2.10 B1813,2013-01-23 19:08:00,
2013-01-23 10:13:00,5.5,-2.1,30.20,North,0,3.0,15.0,70,0.00,,,0.00,LWC V2.10 B1813,2013-01-23 19:13:00,
2013-01-23 10:18:00,5.6,-2.0,30.19,North,355,2.0,10.0,70,0.00,,,0.00,LWC V2.10 B1813,2013-01-23 19:18:00,
2013-01-23 10:23:00,5.7,-1.9,30.19,NNW,348,2.0,6.0,70,0.00,,,0.00,LWC V2.10 B1813,2013-01-23 19:23:00,
2013-01-23 10:28:00,5.7,-1.9,30.19,NW,326,1.0,7.0,70,0.00,,,0.00,LWC V2.10 B1813,2013-01-23 19:28:00,
2013-01-23 10:33:00,5.7,-1.9,30.19,WNW,300,1.0,9.0,70,0.00,,,0.00,LWC V2.10 B1813,2013-01-23 19:33:00,
2013-01-23 10:38:00,5.6,-1.7,30.19,NNW,329,1.0,4.0,71,0.00,,,0.00,LWC V2.10 B1813,2013-01-23 19:38:00,
2013-01-23 10:43:00,5.6,-2.0,30.19,NW,325,3.0,15.0,70,0.00,,,0.00,LWC V2.10 B1813,2013-01-23 19:43:00,
2013-01-23 10:48:00,5.6,-2.0,30.19,NNE,15,4.0,8.0,70,0.00,,,0.00,LWC V2.10 B1813,2013-01-23 19:48:00,
2013-01-23 10:53:00,5.7,-1.9,30.19,NW,313,4.0,10.0,70,0.00,,,0.00,LWC V2.10 B1813,2013-01-23 19:53:00,
2013-01-23 10:58:00,5.6,-2.0,30.19,NNE,13,6.0,10.0,70,0.00,,,0.00,LWC V2.10 B1813,2013-01-23 19:58:00,
2013-01-23 11:03:00,5.6,-2.3,30.19,NNE,17,5.0,11.0,69,0.00,,,0.00,LWC V2.10 B1813,2013-01-23 20:03:00,
2013-01-23 11:08:00,5.6,-2.0,30.19,North,0,5.0,8.0,70,0.00,,,0.00,LWC V2.10 B1813,2013-01-23 20:08:00,
2013-01-23 11:13:00,5.7,-2.2,30.18,North,11,1.0,8.0,69,0.00,,,0.00,LWC V2.10 B1813,2013-01-23 20:13:00,
2013-01-23 11:18:00,5.8,-1.8,30.18,North,0,5.0,9.0,70,0.00,,,0.00,LWC V2.10 B1813,2013-01-23 20:18:00,
2013-01-23 11:23:00,5.9,-1.7,30.18,NNE,15,6.0,10.0,70,0.00,,,0.00,LWC V2.10 B1813,2013-01-23 20:23:00,
2013-01-23 11:28:00,5.9,-2.0,30.18,NNW,344,4.0,11.0,69,0.00,,,0.00,LWC V2.10 B1813,2013-01-23 20:28:00,
2013-01-23 11:33:00,5.9,-2.4,30.18,North,9,14.0,14.0,68,0.00,,,0.00,LWC V2.10 B1813,2013-01-23 20:33:00,
2013-01-23 11:38:00,5.9,-2.4,30.17,North,350,7.0,13.0,68,0.00,,,0.00,LWC V2.10 B1813,2013-01-23 20:38:00,
2013-01-23 11:43:00,5.9,0.0,30.18,North,351,7.0,12.0,76,0.00,,,0.00,LWC V2.10 B1813,2013-01-23 20:43:00,
2013-01-23 11:48:00,5.9,-2.7,30.18,NNW,345,10.0,15.0,67,0.00,,,0.00,LWC V2.10 B1813,2013-01-23 20:48:00,
2013-01-23 11:53:00,5.9,-2.7,30.17,NNW,342,4.0,11.0,67,0.00,,,0.00,LWC V2.10 B1813,2013-01-23 20:53:00,
2013-01-23 11:58:00,5.8,-2.4,30.17,NNW,331,9.0,11.0,68,0.00,,,0.00,LWC V2.10 B1813,2013-01-23 20:58:00,
2013-01-23 12:03:00,5.9,-2.4,30.17,North,355,6.0,10.0,68,0.00,,,0.00,LWC V2.10 B1813,2013-01-23 21:03:00,
2013-01-23 12:08:00,6.0,-1.9,30.17,NNW,333,6.0,7.0,69,0.00,,,0.00,LWC V2.10 B1813,2013-01-23 21:08:00,
2013-01-23 12:13:00,6.2,-1.5,30.17,NNE,24,4.0,6.0,70,0.00,,,0.00,LWC V2.10 B1813,2013-01-23 21:13:00,
2013-01-23 12:18:00,6.2,-1.5,30.17,NNE,22,2.0,11.0,70,0.00,,,0.00,LWC V2.10 B1813,2013-01-23 21:18:00,
2013-01-23 12:23:00,6.2,-1.5,30.17,NW,326,0.0,6.0,70,0.00,,,0.00,LWC V2.10 B1813,2013-01-23 21:23:00,
2013-01-23 12:28:00,6.3,-1.1,30.17,NNW,331,3.0,7.0,71,0.00,,,0.00,LWC V2.10 B1813,2013-01-23 21:28:00,
2013-01-23 12:33:00,6.2,-1.5,30.17,NW,319,2.0,5.0,70,0.00,,,0.00,LWC V2.10 B1813,2013-01-23 21:33:00,
2013-01-23 12:38:00,6.2,-1.2,30.17,NNW,333,3.0,5.0,71,0.00,,,0.00,LWC V2.10 B1813,2013-01-23 21:38:00,
2013-01-23 12:43:00,6.2,-1.2,30.17,NNW,348,4.0,4.0,71,0.00,,,0.00,LWC V2.10 B1813,2013-01-23 21:43:00,
2013-01-23 12:48:00,6.2,-1.5,30.17,NNW,344,4.0,14.0,70,0.00,,,0.00,LWC V2.10 B1813,2013-01-23 21:48:00,
2013-01-23 12:53:00,6.3,-1.7,30.16,NW,312,4.0,16.0,69,0.00,,,0.00,LWC V2.10 B1813,2013-01-23 21:53:00,
2013-01-23 12:58:00,6.4,-1.6,30.16,North,0,6.0,13.0,69,0.00,,,0.00,LWC V2.10 B1813,2013-01-23 21:58:00,
2013-01-23 13:03:00,6.5,-1.8,30.16,NW,323,2.0,11.0,68,0.00,,,0.00,LWC V2.10 B1813,2013-01-23 22:03:00,
2013-01-23 13:08:00,6.6,-1.7,30.16,NNE,25,5.0,6.0,68,0.00,,,0.00,LWC V2.10 B1813,2013-01-23 22:08:00,
2013-01-23 13:13:00,6.7,-1.9,30.16,NNE,23,0.0,11.0,67,0.00,,,0.00,LWC V2.10 B1813,2013-01-23 22:13:00,
2013-01-23 13:18:00,6.6,-2.0,30.16,NE,42,5.0,7.0,67,0.00,,,0.00,LWC V2.10 B1813,2013-01-23 22:18:00,
2013-01-23 13:23:00,6.5,-2.1,30.16,NE,41,7.0,16.0,67,0.00,,,0.00,LWC V2.10 B1813,2013-01-23 22:23:00,
2013-01-23 13:28:00,6.2,-2.7,30.16,NNW,338,2.0,8.0,66,0.00,,,0.00,LWC V2.10 B1813,2013-01-23 22:28:00,
2013-01-23 13:33:00,6.2,-2.1,30.16,North,355,0.0,5.0,68,0.00,,,0.00,LWC V2.10 B1813,2013-01-23 22:33:00,
2013-01-23 13:38:00,6.2,-2.1,30.16,NNE,31,5.0,8.0,68,0.00,,,0.00,LWC V2.10 B1813,2013-01-23 22:38:00,
2013-01-23 13:43:00,6.2,-2.4,30.16,NNE,25,6.0,7.0,67,0.00,,,0.00,LWC V2.10 B1813,2013-01-23 22:43:00,
2013-01-23 13:48:00,6.1,-2.5,30.16,North,0,1.0,4.0,67,0.00,,,0.00,LWC V2.10 B1813,2013-01-23 22:48:00,
2013-01-23 13:53:00,6.0,-1.9,30.16,NNW,329,2.0,13.0,69,0.00,,,0.00,LWC V2.10 B1813,2013-01-23 22:53:00,
2013-01-23 13:58:00,6.0,-2.6,30.16,NNW,348,8.0,18.0,67,0.00,,,0.00,LWC V2.10 B1813,2013-01-23 22:58:00,
2013-01-23 14:03:00,5.9,-3.0,30.16,NNE,13,8.0,18.0,66,0.00,,,0.00,LWC V2.10 B1813,2013-01-23 23:03:00,
2013-01-23 14:08:00,5.8,-2.8,30.16,NE,36,9.0,18.0,67,0.00,,,0.00,LWC V2.10 B1813,2013-01-23 23:08:00,
2013-01-23 14:13:00,5.7,-2.9,30.16,North,5,12.0,19.0,67,0.00,,,0.00,LWC V2.10 B1813,2013-01-23 23:13:00,
2013-01-23 14:18:00,5.5,-3.0,30.16,NNE,28,9.0,9.0,67,0.00,,,0.00,LWC V2.10 B1813,2013-01-23 23:18:00,
2013-01-23 14:23:00,5.4,-3.1,30.16,NNW,345,4.0,15.0,67,0.00,,,0.00,LWC V2.10 B1813,2013-01-23 23:23:00,
2013-01-23 14:28:00,5.4,-3.1,30.16,NNW,333,4.0,15.0,67,0.00,,,0.00,LWC V2.10 B1813,2013-01-23 23:28:00,
2013-01-23 14:33:00,5.5,-2.7,30.16,NNE,26,9.0,15.0,68,0.00,,,0.00,LWC V2.10 B1813,2013-01-23 23:33:00,
2013-01-23 14:38:00,5.5,-2.4,30.16,NW,322,8.0,13.0,69,0.00,,,0.00,LWC V2.10 B1813,2013-01-23 23:38:00,
2013-01-23 14:43:00,5.5,-2.1,30.16,NNE,28,7.0,8.0,70,0.00,,,0.00,LWC V2.10 B1813,2013-01-23 23:43:00,
2013-01-23 14:48:00,5.5,-2.7,30.16,NNW,336,4.0,12.0,68,0.00,,,0.00,LWC V2.10 B1813,2013-01-23 23:48:00,
2013-01-23 14:53:00,5.5,-2.4,30.16,NNW,346,8.0,9.0,69,0.00,,,0.00,LWC V2.10 B1813,2013-01-23 23:53:00,
2013-01-23 14:58:00,5.5,-2.7,30.16,North,10,12.0,12.0,68,0.00,,,0.00,LWC V2.10 B1813,2013-01-23 23:58:00,
2013-01-23 15:03:00,5.5,-2.7,30.15,North,10,3.0,11.0,68,0.00,,,0.00,LWC V2.10 B1813,2013-01-24 00:03:00,
2013-01-23 15:08:00,5.4,-3.1,30.15,ENE,69,8.0,13.0,67,0.00,,,0.00,LWC V2.10 B1813,2013-01-24 00:08:00,
2013-01-23 15:13:00,5.3,-3.5,30.16,NNE,32,15.0,21.0,66,0.00,,,0.00,LWC V2.10 B1813,2013-01-24 00:13:00,
2013-01-23 15:18:00,5.2,-3.3,30.15,NNE,31,10.0,14.0,67,0.00,,,0.00,LWC V2.10 B1813,2013-01-24 00:18:00,
2013-01-23 15:23:00,5.2,-3.3,30.15,NE,49,8.0,14.0,67,0.00,,,0.00,LWC V2.10 B1813,2013-01-24 00:23:00,
2013-01-23 15:28:00,5.1,-3.4,30.15,NNW,330,23.0,23.0,67,0.00,,,0.00,LWC V2.10 B1813,2013-01-24 00:28:00,
2013-01-23 15:33:00,5.0,-3.8,30.15,North,355,4.0,15.0,66,0.00,,,0.00,LWC V2.10 B1813,2013-01-24 00:33:00,
2013-01-23 15:38:00,4.9,-3.6,30.15,North,5,7.0,14.0,67,0.00,,,0.00,LWC V2.10 B1813,2013-01-24 00:38:00,
2013-01-23 15:43:00,4.9,-3.9,30.15,NE,40,9.0,13.0,66,0.00,,,0.00,LWC V2.10 B1813,2013-01-24 00:43:00,
2013-01-23 15:48:00,4.9,-3.6,30.15,NNE,22,11.0,15.0,67,0.00,,,0.00,LWC V2.10 B1813,2013-01-24 00:48:00,
2013-01-23 15:53:00,4.9,-3.9,30.15,North,9,11.0,13.0,66,0.00,,,0.00,LWC V2.10 B1813,2013-01-24 00:53:00,
2013-01-23 15:58:00,4.8,-4.0,30.15,North,0,12.0,13.0,66,0.00,,,0.00,LWC V2.10 B1813,2013-01-24 00:58:00,
2013-01-23 16:03:00,4.7,-3.8,30.16,North,349,3.0,16.0,67,0.00,,,0.00,LWC V2.10 B1813,2013-01-24 01:03:00,
2013-01-23 16:08:00,4.7,-3.5,30.16,NW,311,1.0,11.0,68,0.00,,,0.00,LWC V2.10 B1813,2013-01-24 01:08:00,
2013-01-23 16:13:00,4.7,-3.5,30.15,NNW,327,3.0,8.0,68,0.00,,,0.00,LWC V2.10 B1813,2013-01-24 01:13:00,
2013-01-23 16:18:00,4.6,-3.3,30.16,NW,322,2.0,5.0,69,0.00,,,0.00,LWC V2.10 B1813,2013-01-24 01:18:00,
2013-01-23 16:23:00,4.7,-2.9,30.16,NW,322,4.0,7.0,70,0.00,,,0.00,LWC V2.10 B1813,2013-01-24 01:23:00,
2013-01-23 16:28:00,4.6,-2.7,30.16,NW,315,1.0,5.0,71,0.00,,,0.00,LWC V2.10 B1813,2013-01-24 01:28:00,
2013-01-23 16:33:00,4.6,-3.0,30.16,North,355,6.0,10.0,70,0.00,,,0.00,LWC V2.10 B1813,2013-01-24 01:33:00,
2013-01-23 16:38:00,4.5,-3.7,30.16,North,355,7.0,12.0,68,0.00,,,0.00,LWC V2.10 B1813,2013-01-24 01:38:00,
2013-01-23 16:43:00,4.4,-3.5,30.16,North,5,6.0,12.0,69,0.00,,,0.00,LWC V2.10 B1813,2013-01-24 01:43:00,
2013-01-23 16:48:00,4.4,-3.5,30.16,North,5,5.0,12.0,69,0.00,,,0.00,LWC V2.10 B1813,2013-01-24 01:48:00,
2013-01-23 16:53:00,4.3,-3.9,30.16,NNW,336,3.0,7.0,68,0.00,,,0.00,LWC V2.10 B1813,2013-01-24 01:53:00,
2013-01-23 16:58:00,4.2,-4.0,30.16,NNW,330,3.0,8.0,68,0.00,,,0.00,LWC V2.10 B1813,2013-01-24 01:58:00,
2013-01-23 17:03:00,4.2,-3.7,30.16,NW,313,4.0,5.0,69,0.00,,,0.00,LWC V2.10 B1813,2013-01-24 02:03:00,
2013-01-23 17:08:00,4.2,-3.4,30.16,ENE,57,2.0,5.0,70,0.00,,,0.00,LWC V2.10 B1813,2013-01-24 02:08:00,
2013-01-23 17:13:00,4.3,-3.6,30.16,NW,318,4.0,6.0,69,0.00,,,0.00,LWC V2.10 B1813,2013-01-24 02:13:00,
2013-01-23 17:18:00,4.2,-3.7,30.16,WNW,283,4.0,9.0,69,0.00,,,0.00,LWC V2.10 B1813,2013-01-24 02:18:00,
2013-01-23 17:23:00,4.2,-3.4,30.16,NNW,329,4.0,8.0,70,0.00,,,0.00,LWC V2.10 B1813,2013-01-24 02:23:00,
2013-01-23 17:28:00,4.1,-3.8,30.16,NNW,331,1.0,4.0,69,0.00,,,0.00,LWC V2.10 B1813,2013-01-24 02:28:00,
2013-01-23 17:33:00,4.1,-3.5,30.16,NNW,333,2.0,7.0,70,0.00,,,0.00,LWC V2.10 B1813,2013-01-24 02:33:00,
2013-01-23 17:38:00,4.1,-3.5,30.17,North,351,3.0,9.0,70,0.00,,,0.00,LWC V2.10 B1813,2013-01-24 02:38:00,
2013-01-23 17:43:00,4.0,-3.9,30.16,NNW,335,4.0,8.0,69,0.00,,,0.00,LWC V2.10 B1813,2013-01-24 02:43:00,
2013-01-23 17:48:00,4.0,-3.9,30.16,NNE,24,7.0,16.0,69,0.00,,,0.00,LWC V2.10 B1813,2013-01-24 02:48:00,
2013-01-23 17:53:00,4.0,-4.2,30.16,NNE,20,4.0,9.0,68,0.00,,,0.00,LWC V2.10 B1813,2013-01-24 02:53:00,
2013-01-23 17:58:00,3.9,-4.0,30.16,NNE,24,3.0,5.0,69,0.00,,,0.00,LWC V2.10 B1813,2013-01-24 02:58:00,
2013-01-23 18:03:00,3.9,-4.6,30.15,NNW,340,5.0,13.0,67,0.00,,,0.00,LWC V2.10 B1813,2013-01-24 03:03:00,
2013-01-23 18:08:00,3.8,-4.4,30.16,NNW,336,3.0,5.0,68,0.00,,,0.00,LWC V2.10 B1813,2013-01-24 03:08:00,
2013-01-23 18:13:00,3.9,-3.7,30.16,NNW,332,3.0,7.0,70,0.00,,,0.00,LWC V2.10 B1813,2013-01-24 03:13:00,
2013-01-23 18:18:00,3.9,-4.3,30.16,WNW,288,1.0,6.0,68,0.00,,,0.00,LWC V2.10 B1813,2013-01-24 03:18:00,
2013-01-23 18:23:00,3.9,-3.7,30.16,NW,322,6.0,11.0,70,0.00,,,0.00,LWC V2.10 B1813,2013-01-24 03:23:00,
2013-01-23 18:28:00,3.8,-3.5,30.16,NW,321,3.0,7.0,71,0.00,,,0.00,LWC V2.10 B1813,2013-01-24 03:28:00,
2013-01-23 18:33:00,3.8,-3.8,30.16,NW,315,5.0,5.0,70,0.00,,,0.00,LWC V2.10 B1813,2013-01-24 03:33:00,
2013-01-23 18:38:00,3.7,-3.9,30.16,North,350,3.0,7.0,70,0.00,,,0.00,LWC V2.10 B1813,2013-01-24 03:38:00,
2013-01-23 18:43:00,3.6,-4.0,30.16,North,9,2.0,13.0,70,0.00,,,0.00,LWC V2.10 B1813,2013-01-24 03:43:00,
2013-01-23 18:48:00,3.6,-4.0,30.16,NW,325,3.0,5.0,70,0.00,,,0.00,LWC V2.10 B1813,2013-01-24 03:48:00,
2013-01-23 18:53:00,3.5,-3.8,30.16,NW,307,3.0,11.0,71,0.00,,,0.00,LWC V2.10 B1813,2013-01-24 03:53:00,
2013-01-23 18:58:00,3.5,-4.4,30.16,North,0,6.0,11.0,69,0.00,,,0.00,LWC V2.10 B1813,2013-01-24 03:58:00,
2013-01-23 19:03:00,3.4,-4.4,30.17,NNW,344,10.0,12.0,69,0.00,,,0.00,LWC V2.10 B1813,2013-01-24 04:03:00,
2013-01-23 19:08:00,3.3,-4.2,30.17,NW,315,3.0,5.0,70,0.00,,,0.00,LWC V2.10 B1813,2013-01-24 04:08:00,
2013-01-23 19:13:00,3.3,-4.0,30.17,NW,324,3.0,7.0,71,0.00,,,0.00,LWC V2.10 B1813,2013-01-24 04:13:00,
2013-01-23 19:18:00,3.2,-4.6,30.17,NNW,330,3.0,7.0,69,0.00,,,0.00,LWC V2.10 B1813,2013-01-24 04:18:00,
2013-01-23 19:23:00,3.2,-4.3,30.17,NW,324,3.0,4.0,70,0.00,,,0.00,LWC V2.10 B1813,2013-01-24 04:23:00,
2013-01-23 19:28:00,3.2,-4.3,30.17,NNE,22,3.0,11.0,70,0.00,,,0.00,LWC V2.10 B1813,2013-01-24 04:28:00,
2013-01-23 19:33:00,3.1,-4.7,30.17,NNW,333,3.0,11.0,69,0.00,,,0.00,LWC V2.10 B1813,2013-01-24 04:33:00,
2013-01-23 19:38:00,3.1,-5.0,30.17,North,355,4.0,5.0,68,0.00,,,0.00,LWC V2.10 B1813,2013-01-24 04:38:00,
2013-01-23 19:43:00,3.0,-5.1,30.17,NNW,348,3.0,7.0,68,0.00,,,0.00,LWC V2.10 B1813,2013-01-24 04:43:00,
2013-01-23 19:48:00,2.8,-5.6,30.17,North,5,3.0,8.0,67,0.00,,,0.00,LWC V2.10 B1813,2013-01-24 04:48:00,
2013-01-23 19:53:00,2.8,-5.3,30.17,NNE,19,9.0,14.0,68,0.00,,,0.00,LWC V2.10 B1813,2013-01-24 04:53:00,
2013-01-23 19:58:00,2.7,-5.7,30.17,North,0,4.0,10.0,67,0.00,,,0.00,LWC V2.10 B1813,2013-01-24 04:58:00,
2013-01-23 20:00:00,2.7,-5.7,30.17,NNW,337,6.0,10.0,67,0.00,,,0.00,LWC V2.10 B1813,2013-01-24 05:00:00,
2013-01-23 20:05:00,2.7,-5.4,30.17,North,0,8.0,15.0,68,0.00,,,0.00,LWC V2.10 B1813,2013-01-24 05:05:00,
2013-01-23 20:10:00,2.7,-5.4,30.17,North,0,7.0,9.0,68,0.00,,,0.00,LWC V2.10 B1813,2013-01-24 05:10:00,
2013-01-23 20:15:00,2.8,-5.3,30.17,NNW,340,4.0,7.0,68,0.00,,,0.00,LWC V2.10 B1813,2013-01-24 05:15:00,
2013-01-23 20:20:00,2.8,-5.6,30.17,NNE,25,4.0,15.0,67,0.00,,,0.00,LWC V2.10 B1813,2013-01-24 05:20:00,
2013-01-23 20:25:00,2.8,-5.6,30.17,North,350,9.0,14.0,67,0.00,,,0.00,LWC V2.10 B1813,2013-01-24 05:25:00,
2013-01-23 20:30:00,2.6,-5.8,30.17,NNW,346,7.0,11.0,67,0.00,,,0.00,LWC V2.10 B1813,2013-01-24 05:30:00,
2013-01-23 20:35:00,2.4,-6.0,30.17,NNW,338,1.0,17.0,67,0.00,,,0.00,LWC V2.10 B1813,2013-01-24 05:35:00,
2013-01-23 20:40:00,2.2,-6.5,30.17,North,9,9.0,14.0,66,0.00,,,0.00,LWC V2.10 B1813,2013-01-24 05:40:00,
2013-01-23 20:45:00,2.1,-6.9,30.17,NNE,21,5.0,19.0,65,0.00,,,0.00,LWC V2.10 B1813,2013-01-24 05:45:00,
2013-01-23 20:50:00,1.9,-7.1,30.17,NE,39,10.0,14.0,65,0.00,,,0.00,LWC V2.10 B1813,2013-01-24 05:50:00,
2013-01-23 20:55:00,1.8,-6.9,30.18,NNW,332,9.0,14.0,66,0.00,,,0.00,LWC V2.10 B1813,2013-01-24 05:55:00,
2013-01-23 21:00:00,1.7,-7.0,30.18,North,0,8.0,13.0,66,0.00,,,0.00,LWC V2.10 B1813,2013-01-24 06:00:00,
2013-01-23 21:05:00,1.7,-7.0,30.18,NNW,340,3.0,13.0,66,0.00,,,0.00,LWC V2.10 B1813,2013-01-24 06:05:00,
2013-01-23 21:10:00,1.7,-6.4,30.18,NW,315,4.0,12.0,68,0.00,,,0.00,LWC V2.10 B1813,2013-01-24 06:10:00,
2013-01-23 21:15:00,1.7,-6.4,30.18,NNE,17,4.0,7.0,68,0.00,,,0.00,LWC V2.10 B1813,2013-01-24 06:15:00,
2013-01-23 21:20:00,1.6,-6.5,30.19,NW,319,2.0,9.0,68,0.00,,,0.00,LWC V2.10 B1813,2013-01-24 06:20:00,
2013-01-23 21:25:00,1.7,-5.8,30.18,NNE,13,10.0,10.0,70,0.00,,,0.00,LWC V2.10 B1813,2013-01-24 06:25:00,
2013-01-23 21:30:00,1.6,-6.5,30.18,North,355,3.0,13.0,68,0.00,,,0.00,LWC V2.10 B1813,2013-01-24 06:30:00,
2013-01-23 21:35:00,1.6,-6.5,30.18,NNW,327,4.0,10.0,68,0.00,,,0.00,LWC V2.10 B1813,2013-01-24 06:35:00,
2013-01-23 21:40:00,1.6,-6.5,30.18,North,5,3.0,11.0,68,0.00,,,0.00,LWC V2.10 B1813,2013-01-24 06:40:00,
2013-01-23 21:45:00,1.6,-6.5,30.19,NW,323,3.0,8.0,68,0.00,,,0.00,LWC V2.10 B1813,2013-01-24 06:45:00,
2013-01-23 21:50:00,1.6,-6.2,30.19,NNW,348,3.0,6.0,69,0.00,,,0.00,LWC V2.10 B1813,2013-01-24 06:50:00,
2013-01-23 21:55:00,1.7,-6.1,30.19,North,0,4.0,8.0,69,0.00,,,0.00,LWC V2.10 B1813,2013-01-24 06:55:00,
2013-01-23 22:00:00,1.6,-6.2,30.19,NNW,334,2.0,4.0,69,0.00,,,0.00,LWC V2.10 B1813,2013-01-24 07:00:00,
2013-01-23 22:05:00,1.6,-6.2,30.19,NNW,337,5.0,11.0,69,0.00,,,0.00,LWC V2.10 B1813,2013-01-24 07:05:00,
2013-01-23 22:10:00,1.5,-6.6,30.19,NNW,329,3.0,7.0,68,0.00,,,0.00,LWC V2.10 B1813,2013-01-24 07:10:00,
2013-01-23 22:15:00,1.5,-6.9,30.19,North,355,3.0,7.0,67,0.00,,,0.00,LWC V2.10 B1813,2013-01-24 07:15:00,
2013-01-23 22:20:00,1.4,-4.4,30.19,NNW,338,4.0,5.0,76,0.00,,,0.00,LWC V2.10 B1813,2013-01-24 07:20:00,
2013-01-23 22:25:00,1.3,-7.1,30.19,North,355,4.0,7.0,67,0.00,,,0.00,LWC V2.10 B1813,2013-01-24 07:25:00,
2013-01-23 22:30:00,1.2,-7.5,30.19,North,0,9.0,10.0,66,0.00,,,0.00,LWC V2.10 B1813,2013-01-24 07:30:00,
2013-01-23 22:35:00,1.1,-7.6,30.20,NNW,346,10.0,12.0,66,0.00,,,0.00,LWC V2.10 B1813,2013-01-24 07:35:00,
2013-01-23 22:40:00,1.1,-7.3,30.20,NW,305,13.0,13.0,67,0.00,,,0.00,LWC V2.10 B1813,2013-01-24 07:40:00,
2013-01-23 22:45:00,1.1,-7.6,30.19,WNW,303,7.0,14.0,66,0.00,,,0.00,LWC V2.10 B1813,2013-01-24 07:45:00,
2013-01-23 22:50:00,1.0,-7.7,30.20,NNW,340,6.0,16.0,66,0.00,,,0.00,LWC V2.10 B1813,2013-01-24 07:50:00,
2013-01-23 22:55:00,1.0,-7.7,30.20,NW,317,4.0,10.0,66,0.00,,,0.00,LWC V2.10 B1813,2013-01-24 07:55:00,
2013-01-23 23:00:00,0.9,-7.5,30.20,NE,39,7.0,12.0,67,0.00,,,0.00,LWC V2.10 B1813,2013-01-24 08:00:00,
2013-01-23 23:05:00,0.9,-7.8,30.20,NNE,17,3.0,9.0,66,0.00,,,0.00,LWC V2.10 B1813,2013-01-24 08:05:00,
2013-01-23 23:10:00,0.8,-7.9,30.20,NNW,342,4.0,6.0,66,0.00,,,0.00,LWC V2.10 B1813,2013-01-24 08:10:00,
2013-01-23 23:15:00,0.7,-8.3,30.20,NW,325,1.0,10.0,65,0.00,,,0.00,LWC V2.10 B1813,2013-01-24 08:15:00,
2013-01-23 23:20:00,0.8,-7.2,30.20,NW,324,2.0,10.0,68,0.00,,,0.00,LWC V2.10 B1813,2013-01-24 08:20:00,
2013-01-23 23:25:00,0.7,-7.9,30.20,North,0,2.0,5.0,66,0.00,,,0.00,LWC V2.10 B1813,2013-01-24 08:25:00,
2013-01-23 23:30:00,0.7,-7.9,30.21,NNW,333,2.0,4.0,66,0.00,,,0.00,LWC V2.10 B1813,2013-01-24 08:30:00,
2013-01-23 23:35:00,0.7,-7.9,30.20,North,355,3.0,9.0,66,0.00,,,0.00,LWC V2.10 B1813,2013-01-24 08:35:00,
2013-01-23 23:40:00,0.6,-8.0,30.20,NNE,13,3.0,13.0,66,0.00,,,0.00,LWC V2.10 B1813,2013-01-24 08:40:00,
2013-01-23 23:45:00,0.5,-8.5,30.21,North,11,5.0,13.0,65,0.00,,,0.00,LWC V2.10 B1813,2013-01-24 08:45:00,
2013-01-23 23:50:00,0.4,-8.2,30.21,North,0,2.0,10.0,66,0.00,,,0.00,LWC V2.10 B1813,2013-01-24 08:50:00,
2013-01-23 23:55:00,0.4,-8.2,30.21,NNW,346,3.0,12.0,66,0.00,,,0.00,LWC V2.10 B1813,2013-01-24 08:55:00,